Terminal Aerodrome Forecast
Issued by NWS Anchorage, AK

Home | Current Version | Previous Version | Text Only | Print | Product List | Glossary On
Versions: 1 2 3 4 5 6 7 8 9 10 11 12 13 14 15 16 17 18 19 20 21 22 23 24 25 26 27 28 29 30 31 32
000
FTAK31 PANC 232320
TAFANC
TAF
PANC 232320Z 2400/2506 VRB04KT P6SM FEW030 SCT070 BKN100
     FM240600 17007KT P6SM SCT070 BKN100
     FM250200 22007KT P6SM -SHRA BKN045=

USA.gov is the U.S. government's official web portal to all federal, state and local government web resources and services.